Time;durP1;ratioP1;P1;durP2;ratioP2;P2;SDS_P1;SDS_P2;PMS_P1;PMS_P2;Temp;Humidity;BMP_temperature;BMP_pressure;BME280_temperature;BME280_humidity;BME280_pressure;Samples;Min_cycle;Max_cycle;Signal;HPM_P1;HPM_P2
2022/04/07 00:00:35;;;;;;;1.30;1.30;;;17.80;63.10;;;;;;4989890;28;43977;-76
2022/04/07 00:03:02;;;;;;;1.30;1.30;;;17.70;63.30;;;;;;4988838;28;46090;-77
2022/04/07 00:05:32;;;;;;;1.23;1.23;;;17.60;63.50;;;;;;5006817;28;43906;-77
2022/04/07 00:08:00;;;;;;;1.43;1.43;;;17.60;63.80;;;;;;4985730;28;43413;-78
2022/04/07 00:10:28;;;;;;;1.40;1.40;;;17.50;64.10;;;;;;5005818;28;43880;-75
2022/04/07 00:12:56;;;;;;;1.33;1.33;;;17.50;64.20;;;;;;4985185;28;46730;-75
2022/04/07 00:15:24;;;;;;;1.60;1.60;;;17.40;64.30;;;;;;5004876;28;44126;-75
2022/04/07 00:17:52;;;;;;;1.30;1.30;;;17.40;65.00;;;;;;5006651;28;43377;-75
2022/04/07 00:20:21;;;;;;;1.33;1.33;;;17.50;65.00;;;;;;4985656;28;43978;-77
2022/04/07 00:22:51;;;;;;;1.27;1.27;;;17.70;64.50;;;;;;5004930;28;43982;-75
2022/04/07 00:25:19;;;;;;;1.40;1.40;;;17.80;64.20;;;;;;4988825;28;44535;-77
2022/04/07 00:27:47;;;;;;;1.47;1.47;;;17.80;63.90;;;;;;5006632;28;44046;-75
2022/04/07 00:30:19;;;;;;;1.33;1.33;;;17.80;63.80;;;;;;5006817;28;43487;-75
2022/04/07 00:32:48;;;;;;;1.07;1.07;;;17.70;63.90;;;;;;5004477;28;46527;-78
2022/04/07 00:35:16;;;;;;;1.43;1.43;;;17.60;63.80;;;;;;5006312;28;43969;-75
2022/04/07 00:37:44;;;;;;;1.30;1.30;;;17.50;64.00;;;;;;5004923;28;43902;-75
2022/04/07 00:40:13;;;;;;;1.23;1.23;;;17.50;64.20;;;;;;5006768;28;43933;-76
2022/04/07 00:42:45;;;;;;;1.10;1.10;;;17.40;64.30;;;;;;5005967;28;44005;-77
2022/04/07 00:45:14;;;;;;;1.40;1.40;;;17.40;64.50;;;;;;5006155;28;44034;-75
2022/04/07 00:47:42;;;;;;;1.30;1.30;;;17.40;64.60;;;;;;5000203;28;43400;-75
2022/04/07 00:50:10;;;;;;;1.33;1.33;;;17.30;64.60;;;;;;5012180;28;43943;-75
2022/04/07 00:52:41;;;;;;;1.23;1.23;;;17.30;64.70;;;;;;4999854;28;44148;-76
2022/04/07 00:55:10;;;;;;;1.30;1.30;;;17.30;64.90;;;;;;5000290;28;43759;-75
2022/04/07 00:57:40;;;;;;;1.43;1.43;;;17.40;65.20;;;;;;5006321;28;44027;-75
2022/04/07 01:00:14;;;;;;;1.20;1.20;;;17.50;64.80;;;;;;5006473;28;43977;-76
2022/04/07 01:02:43;;;;;;;1.30;1.30;;;17.80;64.30;;;;;;5006153;28;43700;-79
2022/04/07 01:05:11;;;;;;;1.20;1.20;;;17.90;64.30;;;;;;5004272;28;44226;-77
2022/04/07 01:07:39;;;;;;;1.10;1.10;;;18.00;63.40;;;;;;5006008;28;43937;-77
2022/04/07 01:10:08;;;;;;;1.20;1.20;;;18.00;63.20;;;;;;5007815;28;43463;-77
2022/04/07 01:12:37;;;;;;;1.00;1.00;;;17.90;63.20;;;;;;5009383;28;43914;-79
2022/04/07 01:15:07;;;;;;;1.40;1.40;;;17.80;63.20;;;;;;5009529;28;43938;-77
2022/04/07 01:17:35;;;;;;;1.40;1.40;;;17.70;63.30;;;;;;5009506;28;43766;-77
2022/04/07 01:20:04;;;;;;;1.30;1.30;;;17.70;63.70;;;;;;5009773;28;43273;-79
2022/04/07 01:22:33;;;;;;;1.13;1.13;;;17.60;63.80;;;;;;5009492;28;44006;-77
2022/04/07 01:25:02;;;;;;;1.13;1.13;;;17.50;64.10;;;;;;5008999;28;43893;-78
2022/04/07 01:27:30;;;;;;;1.17;1.17;;;17.50;64.30;;;;;;4991744;28;44017;-76
2022/04/07 01:30:02;;;;;;;1.30;1.30;;;17.50;64.50;;;;;;5009528;28;44523;-77
2022/04/07 01:32:33;;;;;;;1.10;1.10;;;17.40;64.50;;;;;;5009071;28;43955;-79
2022/04/07 01:35:03;;;;;;;1.50;1.50;;;17.40;65.10;;;;;;5009269;28;43322;-77
2022/04/07 01:37:31;;;;;;;1.20;1.20;;;17.50;65.00;;;;;;4991494;28;44006;-77
2022/04/07 01:40:01;;;;;;;1.20;1.20;;;17.60;64.40;;;;;;5009475;28;43909;-76
2022/04/07 01:42:29;;;;;;;1.33;1.33;;;17.80;64.20;;;;;;5009075;28;43926;-79
2022/04/07 01:44:58;;;;;;;1.40;1.40;;;17.80;64.00;;;;;;5008622;28;44082;-79
2022/04/07 01:47:26;;;;;;;1.20;1.20;;;17.70;63.70;;;;;;5009021;28;43386;-79
2022/04/07 01:49:57;;;;;;;1.13;1.13;;;17.70;63.70;;;;;;5009176;28;43370;-77
2022/04/07 01:52:24;;;;;;;1.23;1.20;;;17.60;63.80;;;;;;5009123;28;43967;-77
2022/04/07 01:54:52;;;;;;;1.07;1.07;;;17.50;64.00;;;;;;5008732;28;43472;-77
2022/04/07 01:57:23;;;;;;;1.27;1.27;;;17.50;64.90;;;;;;5009368;28;44473;-79
2022/04/07 01:59:51;;;;;;;1.30;1.30;;;17.40;64.30;;;;;;5009228;28;43393;-78
2022/04/07 02:02:19;;;;;;;1.20;1.20;;;17.40;64.50;;;;;;5008831;28;43889;-79
2022/04/07 02:04:54;;;;;;;1.20;1.20;;;17.40;64.60;;;;;;4990365;28;44970;-77
2022/04/07 02:07:22;;;;;;;1.20;1.20;;;17.40;64.70;;;;;;5008770;28;43966;-77
2022/04/07 02:09:50;;;;;;;1.10;1.10;;;17.40;64.80;;;;;;4990933;28;43997;-77
2022/04/07 02:12:20;;;;;;;1.10;1.10;;;17.30;65.10;;;;;;4990512;28;45788;-78
2022/04/07 02:14:50;;;;;;;1.17;1.17;;;17.40;65.30;;;;;;4987590;28;44400;-77
2022/04/07 02:17:20;;;;;;;1.00;1.00;;;17.60;64.80;;;;;;4990712;28;43989;-77
2022/04/07 02:19:49;;;;;;;1.10;1.10;;;17.80;64.30;;;;;;4998292;28;43558;-77
2022/04/07 02:22:17;;;;;;;1.07;1.07;;;18.00;63.70;;;;;;5007180;28;43909;-78
2022/04/07 02:24:45;;;;;;;1.20;1.20;;;18.10;63.40;;;;;;5008165;28;43989;-78
2022/04/07 02:27:13;;;;;;;1.07;1.07;;;18.10;63.20;;;;;;5004044;28;43401;-78
2022/04/07 02:29:42;;;;;;;1.13;1.13;;;18.00;63.10;;;;;;5008450;28;43574;-79
2022/04/07 02:32:12;;;;;;;1.10;1.10;;;17.90;63.10;;;;;;5008258;28;44528;-77
2022/04/07 02:34:40;;;;;;;1.20;1.20;;;17.80;63.20;;;;;;5006590;28;46318;-76
2022/04/07 02:37:08;;;;;;;1.00;1.00;;;17.80;63.50;;;;;;5008369;28;43468;-79
2022/04/07 02:39:36;;;;;;;1.20;1.20;;;17.70;63.80;;;;;;5006863;28;44011;-78
2022/04/07 02:42:04;;;;;;;1.07;1.07;;;17.60;63.90;;;;;;5006694;28;45600;-77
2022/04/07 02:44:33;;;;;;;1.03;1.03;;;17.50;64.10;;;;;;5006685;28;44696;-78
2022/04/07 02:47:00;;;;;;;1.07;1.07;;;17.50;64.30;;;;;;5008453;28;43909;-77
2022/04/07 02:49:30;;;;;;;1.00;1.00;;;17.40;64.30;;;;;;5008308;28;43972;-78
2022/04/07 02:51:58;;;;;;;1.20;1.20;;;17.40;65.00;;;;;;5006390;28;44003;-78
2022/04/07 02:54:26;;;;;;;0.90;0.90;;;17.50;64.80;;;;;;5007997;28;44076;-79
2022/04/07 02:56:55;;;;;;;1.20;1.20;;;17.70;64.50;;;;;;5006489;28;43990;-79
2022/04/07 02:59:24;;;;;;;0.90;0.90;;;17.90;64.10;;;;;;5008035;28;43976;-79
2022/04/07 03:01:53;;;;;;;1.07;1.07;;;18.10;63.50;;;;;;5006138;28;44431;-78
2022/04/07 03:04:24;;;;;;;1.10;1.10;;;18.30;62.90;;;;;;5007606;28;43394;-77
2022/04/07 03:06:53;;;;;;;1.10;1.10;;;18.50;62.50;;;;;;5006324;28;43515;-78
2022/04/07 03:09:21;;;;;;;1.10;1.10;;;18.60;61.80;;;;;;5008171;28;44013;-77
2022/04/07 03:11:49;;;;;;;1.10;1.10;;;18.70;61.60;;;;;;5006068;28;44258;-77
2022/04/07 03:14:17;;;;;;;1.03;1.03;;;18.80;61.30;;;;;;5007643;28;43512;-78
2022/04/07 03:16:48;;;;;;;1.10;1.10;;;18.90;61.10;;;;;;5006143;28;44106;-78
2022/04/07 03:19:16;;;;;;;1.10;1.10;;;18.90;60.80;;;;;;5006345;28;43945;-77
2022/04/07 03:21:45;;;;;;;0.93;0.93;;;18.90;60.90;;;;;;5007429;28;44675;-78
2022/04/07 03:24:15;;;;;;;0.90;0.90;;;18.80;61.20;;;;;;5007434;28;43956;-80
2022/04/07 03:27:04;;;;;;;0.80;0.80;;;18.70;61.80;;;;;;5005627;28;44139;-78
2022/04/07 03:29:34;;;;;;;0.97;0.97;;;18.40;62.10;;;;;;5008337;28;44004;-78
2022/04/07 03:32:02;;;;;;;1.00;1.00;;;18.20;62.10;;;;;;5007553;28;45328;-78
2022/04/07 03:34:30;;;;;;;1.00;1.00;;;18.10;62.40;;;;;;5007390;28;43992;-77
2022/04/07 03:36:58;;;;;;;1.00;1.00;;;18.00;62.70;;;;;;5006455;28;43966;-81
2022/04/07 03:39:27;;;;;;;0.90;0.90;;;17.90;63.00;;;;;;5008272;28;43885;-81
2022/04/07 03:41:55;;;;;;;0.90;0.90;;;17.80;63.80;;;;;;5006018;28;45966;-79
2022/04/07 03:44:23;;;;;;;1.00;1.00;;;17.80;64.70;;;;;;5007030;28;44011;-78
2022/04/07 03:46:51;;;;;;;1.10;1.10;;;17.90;64.50;;;;;;5005302;28;44081;-77
2022/04/07 03:49:20;;;;;;;1.07;1.07;;;18.00;64.10;;;;;;4999264;28;43567;-77
2022/04/07 03:51:47;;;;;;;0.90;0.90;;;18.00;63.90;;;;;;5006871;28;44412;-78
2022/04/07 03:54:17;;;;;;;1.00;1.00;;;18.00;63.70;;;;;;4999199;28;46325;-77
2022/04/07 03:56:47;;;;;;;0.90;0.90;;;17.90;63.50;;;;;;5007515;28;44019;-80
2022/04/07 03:59:15;;;;;;;0.80;0.80;;;17.80;63.40;;;;;;5001235;28;43978;-77
2022/04/07 04:01:44;;;;;;;0.90;0.90;;;17.70;63.60;;;;;;5005378;28;46804;-75
2022/04/07 04:04:15;;;;;;;0.90;0.90;;;17.60;63.70;;;;;;5006844;28;43992;-76
2022/04/07 04:06:43;;;;;;;0.90;0.90;;;17.60;64.00;;;;;;5007228;28;44041;-79
2022/04/07 04:09:11;;;;;;;0.80;0.80;;;17.50;64.10;;;;;;5006707;28;44017;-80
2022/04/07 04:11:38;;;;;;;0.90;0.90;;;17.50;64.40;;;;;;5005316;28;46049;-77
2022/04/07 04:14:08;;;;;;;0.80;0.80;;;17.40;64.30;;;;;;5006324;28;44037;-76
2022/04/07 04:16:37;;;;;;;0.90;0.90;;;17.40;64.50;;;;;;5007805;28;43923;-79
2022/04/07 04:19:05;;;;;;;0.90;0.90;;;17.40;65.10;;;;;;5005444;28;44251;-77
2022/04/07 04:21:33;;;;;;;1.03;1.03;;;17.40;65.30;;;;;;5006784;28;44046;-77
2022/04/07 04:24:02;;;;;;;0.90;0.90;;;17.60;65.20;;;;;;5007663;28;43866;-77
2022/04/07 04:26:30;;;;;;;0.90;0.90;;;17.80;64.90;;;;;;5004725;28;43859;-78
2022/04/07 04:28:58;;;;;;;0.93;0.93;;;17.90;64.30;;;;;;5006690;28;44111;-78
2022/04/07 04:31:27;;;;;;;1.10;1.10;;;18.00;64.00;;;;;;5006618;28;43957;-78
2022/04/07 04:33:55;;;;;;;1.00;1.00;;;18.00;63.80;;;;;;5005950;28;43983;-79
2022/04/07 04:36:23;;;;;;;0.83;0.83;;;17.90;63.50;;;;;;5006457;28;43464;-78
2022/04/07 04:38:51;;;;;;;1.00;1.00;;;17.80;63.50;;;;;;5006725;28;44037;-77
2022/04/07 04:41:19;;;;;;;0.83;0.83;;;17.70;63.60;;;;;;5006352;28;44836;-76
2022/04/07 04:43:47;;;;;;;0.80;0.80;;;17.60;63.70;;;;;;5004696;28;44324;-79
2022/04/07 04:46:15;;;;;;;0.90;0.90;;;17.60;64.00;;;;;;5009569;28;43412;-77
2022/04/07 04:48:44;;;;;;;0.93;0.93;;;17.50;64.10;;;;;;5009930;28;44048;-77
2022/04/07 04:51:12;;;;;;;0.73;0.73;;;17.50;64.40;;;;;;5009967;28;43999;-78
2022/04/07 04:53:40;;;;;;;0.70;0.70;;;17.40;64.40;;;;;;5009827;28;44056;-77
2022/04/07 04:56:08;;;;;;;1.00;1.00;;;17.40;64.60;;;;;;5009802;28;43971;-77
2022/04/07 04:58:36;;;;;;;0.80;0.80;;;17.40;65.40;;;;;;5008628;28;44196;-77
2022/04/07 05:01:04;;;;;;;0.97;0.97;;;17.50;65.20;;;;;;5008254;28;45387;-79
2022/04/07 05:03:32;;;;;;;0.73;0.73;;;17.70;64.80;;;;;;5008272;28;44416;-78
2022/04/07 05:06:01;;;;;;;0.87;0.87;;;17.70;65.20;;;;;;5009595;28;43929;-80
2022/04/07 05:08:29;;;;;;;0.80;0.80;;;17.70;64.10;;;;;;5008448;28;44039;-77
2022/04/07 05:10:57;;;;;;;0.90;0.90;;;17.70;64.00;;;;;;5007814;28;45514;-77
2022/04/07 05:13:25;;;;;;;0.73;0.73;;;17.60;63.80;;;;;;5009012;28;44093;-79
2022/04/07 05:15:53;;;;;;;0.83;0.83;;;17.60;64.00;;;;;;5009596;28;43944;-79
2022/04/07 05:18:21;;;;;;;1.00;1.00;;;17.50;64.10;;;;;;5009933;28;44009;-77
2022/04/07 05:20:49;;;;;;;1.07;1.07;;;17.50;64.40;;;;;;5007440;28;45939;-78
2022/04/07 05:23:18;;;;;;;0.73;0.73;;;17.40;64.40;;;;;;5009472;28;43905;-78
2022/04/07 05:25:46;;;;;;;0.90;0.90;;;17.40;64.50;;;;;;5007186;28;43907;-78
2022/04/07 05:28:14;;;;;;;0.90;0.90;;;17.40;64.60;;;;;;5008639;28;43589;-78
2022/04/07 05:30:42;;;;;;;1.03;0.97;;;17.40;64.70;;;;;;5008801;28;44031;-78
2022/04/07 05:33:11;;;;;;;1.20;0.77;;;17.40;65.00;;;;;;5008844;28;43897;-77
2022/04/07 05:35:39;;;;;;;1.00;1.00;;;17.40;65.40;;;;;;5007763;28;44055;-77
2022/04/07 05:38:08;;;;;;;0.93;0.93;;;17.50;65.10;;;;;;5009727;28;43417;-77
2022/04/07 05:40:37;;;;;;;0.90;0.90;;;17.80;64.70;;;;;;5008735;28;44053;-77
2022/04/07 05:43:06;;;;;;;0.83;0.83;;;17.90;64.10;;;;;;5009127;28;43983;-79
2022/04/07 05:45:34;;;;;;;0.73;0.73;;;18.10;63.80;;;;;;5007811;28;43484;-77
2022/04/07 05:48:04;;;;;;;0.93;0.90;;;18.10;63.50;;;;;;5008193;28;43981;-78
2022/04/07 05:50:32;;;;;;;0.80;0.80;;;18.10;63.40;;;;;;5009047;28;43889;-80
2022/04/07 05:53:00;;;;;;;0.70;0.70;;;18.00;63.30;;;;;;5008794;28;44063;-77
2022/04/07 05:55:28;;;;;;;0.80;0.80;;;17.90;63.40;;;;;;5008811;28;43465;-79
2022/04/07 05:57:57;;;;;;;0.90;0.90;;;17.80;63.50;;;;;;5007674;28;43986;-79
2022/04/07 06:00:26;;;;;;;0.70;0.70;;;17.70;63.70;;;;;;5008807;28;44055;-78
2022/04/07 06:02:54;;;;;;;0.70;0.70;;;17.60;63.80;;;;;;5008761;28;43980;-77
2022/04/07 06:05:22;;;;;;;0.80;0.80;;;17.60;64.10;;;;;;5008662;28;43908;-79
2022/04/07 06:07:50;;;;;;;0.70;0.70;;;17.50;64.20;;;;;;5007486;28;44070;-77
2022/04/07 06:10:18;;;;;;;0.97;0.97;;;17.50;64.50;;;;;;5006888;28;46790;-77
2022/04/07 06:12:46;;;;;;;0.90;0.90;;;17.50;65.20;;;;;;5007057;28;43390;-76
2022/04/07 06:15:16;;;;;;;0.90;0.90;;;17.60;65.10;;;;;;5006876;28;44076;-79
2022/04/07 06:17:45;;;;;;;0.70;0.70;;;17.80;64.80;;;;;;5008976;28;44003;-77
2022/04/07 06:20:13;;;;;;;0.70;0.70;;;17.80;64.30;;;;;;5008066;28;44131;-78
2022/04/07 06:22:41;;;;;;;0.80;0.80;;;17.80;64.10;;;;;;5008234;28;43998;-77
2022/04/07 06:25:10;;;;;;;0.90;0.90;;;17.70;63.80;;;;;;5008092;28;43336;-76
2022/04/07 06:27:37;;;;;;;0.90;0.90;;;17.70;63.80;;;;;;5008951;28;43897;-80
2022/04/07 06:30:07;;;;;;;0.90;0.90;;;17.60;63.90;;;;;;5008322;28;43972;-77
2022/04/07 06:32:36;;;;;;;0.77;0.77;;;17.50;64.10;;;;;;4990459;28;44775;-77
2022/04/07 06:35:05;;;;;;;0.80;0.80;;;17.50;64.30;;;;;;5008484;28;44049;-79
2022/04/07 06:37:34;;;;;;;0.90;0.90;;;17.40;64.40;;;;;;5008826;28;43978;-77
2022/04/07 06:40:02;;;;;;;0.80;0.80;;;17.40;64.50;;;;;;5007810;28;44043;-78
2022/04/07 06:42:30;;;;;;;0.80;0.80;;;17.40;64.60;;;;;;5008132;28;44036;-78
2022/04/07 06:44:58;;;;;;;0.73;0.73;;;17.40;64.80;;;;;;5008294;28;43879;-78
2022/04/07 06:47:26;;;;;;;0.60;0.60;;;17.40;64.80;;;;;;5008398;28;43990;-78
2022/04/07 06:49:55;;;;;;;0.70;0.70;;;17.40;65.40;;;;;;4990245;28;46045;-78
2022/04/07 06:52:23;;;;;;;0.80;0.80;;;17.50;65.20;;;;;;5007920;28;44094;-78
2022/04/07 06:54:51;;;;;;;0.80;0.80;;;17.70;64.70;;;;;;4990568;28;44038;-78
2022/04/07 06:57:19;;;;;;;0.80;0.80;;;17.90;64.10;;;;;;4990614;28;43998;-78
2022/04/07 06:59:47;;;;;;;0.83;0.83;;;18.00;63.60;;;;;;5007855;28;44037;-79
2022/04/07 07:02:15;;;;;;;0.90;0.90;;;18.10;63.50;;;;;;5008090;28;44054;-79
2022/04/07 07:04:43;;;;;;;0.97;0.97;;;18.00;63.30;;;;;;5007555;28;43910;-79
2022/04/07 07:07:13;;;;;;;0.83;0.83;;;18.00;63.30;;;;;;5007336;28;43975;-79
2022/04/07 07:09:41;;;;;;;0.90;0.90;;;17.80;63.30;;;;;;5007472;28;43934;-78
2022/04/07 07:12:09;;;;;;;0.77;0.77;;;17.80;63.50;;;;;;4989950;28;45149;-78
2022/04/07 07:14:37;;;;;;;0.93;0.93;;;17.70;63.80;;;;;;4989984;28;44105;-79
2022/04/07 07:17:06;;;;;;;0.93;0.93;;;17.60;63.90;;;;;;5008288;28;44058;-78
2022/04/07 07:19:33;;;;;;;1.10;1.10;;;17.50;64.10;;;;;;4986182;28;46655;-78
2022/04/07 07:22:01;;;;;;;1.03;1.03;;;17.50;64.30;;;;;;5006183;28;43955;-77
2022/04/07 07:24:31;;;;;;;1.20;1.20;;;17.50;64.50;;;;;;5007868;28;43906;-79
2022/04/07 07:26:59;;;;;;;0.93;0.93;;;17.40;65.00;;;;;;5004047;28;43973;-78
2022/04/07 07:29:27;;;;;;;1.50;1.40;;;17.50;65.10;;;;;;5007432;28;44368;-78
2022/04/07 07:31:55;;;;;;;1.40;1.37;;;17.70;64.60;;;;;;5007281;28;43991;-80
2022/04/07 07:34:23;;;;;;;1.40;1.30;;;17.80;64.40;;;;;;5005857;28;43432;-80
2022/04/07 07:36:51;;;;;;;1.40;1.30;;;17.80;64.10;;;;;;5007833;28;43988;-79
2022/04/07 07:39:19;;;;;;;1.30;1.20;;;17.80;63.80;;;;;;5005725;28;45995;-79
2022/04/07 07:41:49;;;;;;;1.50;1.40;;;17.70;63.70;;;;;;5006869;28;43962;-78
2022/04/07 07:44:17;;;;;;;1.13;1.13;;;17.60;63.80;;;;;;5005458;28;44054;-79
2022/04/07 07:46:45;;;;;;;1.20;1.20;;;17.60;64.10;;;;;;5007562;28;44064;-78
2022/04/07 07:49:13;;;;;;;1.40;1.40;;;17.50;64.30;;;;;;5007144;28;43851;-77
2022/04/07 07:51:41;;;;;;;1.40;1.30;;;17.50;64.50;;;;;;5005322;28;44001;-77
2022/04/07 07:54:09;;;;;;;1.50;1.40;;;17.40;64.50;;;;;;5005637;28;44062;-79
2022/04/07 07:56:37;;;;;;;1.30;1.20;;;17.40;64.60;;;;;;5005863;28;43926;-78
2022/04/07 07:59:09;;;;;;;1.60;1.10;;;17.40;64.70;;;;;;5005300;28;45665;-78
2022/04/07 08:01:37;;;;;;;1.33;1.27;;;17.30;64.70;;;;;;5002144;28;44677;-78
2022/04/07 08:04:05;;;;;;;1.40;1.30;;;17.30;65.10;;;;;;5007112;28;43387;-78
2022/04/07 08:06:33;;;;;;;1.50;1.40;;;17.40;65.40;;;;;;5001098;28;43969;-79
2022/04/07 08:09:01;;;;;;;1.27;1.17;;;17.50;65.00;;;;;;4998777;28;45433;-78
2022/04/07 08:11:29;;;;;;;1.10;1.10;;;17.80;64.70;;;;;;5000057;28;43953;-79
2022/04/07 08:13:57;;;;;;;1.10;1.10;;;18.00;64.00;;;;;;5000484;28;43930;-77
2022/04/07 08:16:29;;;;;;;1.37;1.27;;;18.10;63.50;;;;;;4996111;28;44211;-77
2022/04/07 08:18:57;;;;;;;1.10;1.10;;;18.10;63.40;;;;;;5000528;28;45069;-80
2022/04/07 08:21:25;;;;;;;1.27;1.17;;;18.00;63.30;;;;;;5006724;28;43955;-78
2022/04/07 08:23:53;;;;;;;1.00;1.00;;;17.90;63.20;;;;;;5006698;28;43993;-77
2022/04/07 08:26:21;;;;;;;1.40;1.23;;;17.80;63.30;;;;;;5006599;28;44035;-79
2022/04/07 08:28:49;;;;;;;1.30;1.30;;;17.70;63.60;;;;;;4988405;28;46960;-78
2022/04/07 08:31:17;;;;;;;1.10;1.10;;;17.70;63.90;;;;;;5006688;28;44018;-77
2022/04/07 08:33:46;;;;;;;1.10;1.10;;;17.60;64.00;;;;;;4988362;28;44116;-80
2022/04/07 08:36:14;;;;;;;1.60;1.50;;;17.50;64.10;;;;;;5007106;28;43978;-79
2022/04/07 08:38:42;;;;;;;1.17;1.17;;;17.50;64.30;;;;;;5006424;28;43966;-79
2022/04/07 08:41:12;;;;;;;1.20;1.20;;;17.50;64.50;;;;;;5006586;28;44001;-79
2022/04/07 08:43:42;;;;;;;1.10;1.10;;;17.50;65.20;;;;;;5006138;28;43978;-80
2022/04/07 08:46:11;;;;;;;1.40;1.30;;;17.50;65.00;;;;;;4988827;28;44057;-79
2022/04/07 08:48:40;;;;;;;1.20;1.20;;;17.70;64.60;;;;;;5006294;28;43882;-78
2022/04/07 08:51:09;;;;;;;1.40;1.30;;;17.80;64.40;;;;;;5006319;28;44052;-78
2022/04/07 08:53:38;;;;;;;1.10;1.10;;;17.80;64.10;;;;;;4988729;28;44289;-78
2022/04/07 08:56:06;;;;;;;1.03;1.03;;;17.70;63.90;;;;;;5006716;28;43977;-78
2022/04/07 08:58:34;;;;;;;1.60;1.43;;;17.70;63.90;;;;;;5006266;28;44147;-78
2022/04/07 09:01:03;;;;;;;1.03;1.03;;;17.60;63.90;;;;;;4988518;28;44662;-77
2022/04/07 09:03:31;;;;;;;1.00;1.00;;;17.50;64.10;;;;;;5006449;28;43922;-78
2022/04/07 09:06:00;;;;;;;1.10;1.10;;;17.50;64.40;;;;;;5006410;28;43907;-80
2022/04/07 09:08:33;;;;;;;1.20;1.20;;;17.40;64.40;;;;;;5005862;28;44091;-77
2022/04/07 09:11:02;;;;;;;1.20;1.20;;;17.40;64.60;;;;;;5006245;28;44004;-78
2022/04/07 09:13:31;;;;;;;1.13;1.13;;;17.40;64.60;;;;;;5006341;28;43954;-77
2022/04/07 09:16:00;;;;;;;1.20;1.20;;;17.40;64.80;;;;;;5006460;28;43465;-78
2022/04/07 09:18:28;;;;;;;1.23;1.23;;;17.30;64.70;;;;;;5005898;28;44050;-78
2022/04/07 09:20:56;;;;;;;0.77;0.77;;;17.30;65.00;;;;;;4987981;28;45295;-80
2022/04/07 09:23:24;;;;;;;1.60;1.50;;;17.40;65.30;;;;;;5006047;28;43303;-78
2022/04/07 09:25:53;;;;;;;1.13;1.10;;;17.50;65.10;;;;;;4987655;28;44105;-79
2022/04/07 09:28:28;;;;;;;1.43;1.40;;;17.70;64.50;;;;;;5005808;28;43852;-79
2022/04/07 09:30:57;;;;;;;1.20;1.20;;;17.90;63.90;;;;;;5007135;28;43854;-79
2022/04/07 09:33:26;;;;;;;1.00;1.00;;;18.10;63.50;;;;;;4991403;28;43936;-79
2022/04/07 09:36:05;;;;;;;1.20;1.20;;;18.10;63.40;;;;;;4988367;28;44184;-79
2022/04/07 09:38:33;;;;;;;1.00;1.00;;;18.00;63.20;;;;;;5009353;28;45131;-79
2022/04/07 09:41:06;;;;;;;0.90;0.90;;;17.90;63.30;;;;;;5009538;28;43936;-79
2022/04/07 09:43:45;;;;;;;1.10;1.10;;;17.80;63.40;;;;;;5009403;28;43467;-79
2022/04/07 09:46:15;;;;;;;1.10;1.10;;;17.70;63.70;;;;;;5009591;28;43819;-79
2022/04/07 09:49:00;;;;;;;0.97;0.97;;;17.60;63.80;;;;;;4991001;28;46194;-79
2022/04/07 09:51:29;;;;;;;1.00;1.00;;;17.50;64.10;;;;;;4991286;28;44384;-79
2022/04/07 09:53:58;;;;;;;1.63;1.20;;;17.50;64.30;;;;;;5009068;28;43393;-79
2022/04/07 09:56:28;;;;;;;1.63;1.10;;;17.50;64.40;;;;;;5009384;28;44017;-78
2022/04/07 09:58:56;;;;;;;1.40;1.30;;;17.40;64.90;;;;;;5008826;28;45069;-79
2022/04/07 10:01:31;;;;;;;1.27;1.20;;;17.50;65.10;;;;;;5009163;28;44052;-78
2022/04/07 10:03:59;;;;;;;1.63;1.23;;;17.70;64.70;;;;;;4990695;28;44061;-78
2022/04/07 10:06:27;;;;;;;1.00;1.00;;;17.80;64.30;;;;;;5008980;28;43995;-78
2022/04/07 10:08:55;;;;;;;1.20;1.20;;;17.90;64.10;;;;;;5008559;28;43954;-78
2022/04/07 10:11:23;;;;;;;1.07;1.07;;;17.80;63.80;;;;;;5008651;28;44188;-79
2022/04/07 10:14:02;;;;;;;1.27;1.23;;;17.70;63.70;;;;;;5008699;28;43425;-78
2022/04/07 10:16:45;;;;;;;1.00;1.00;;;17.60;63.80;;;;;;4986639;28;44255;-78
2022/04/07 10:19:17;;;;;;;1.20;1.20;;;17.60;64.10;;;;;;4990343;28;46927;-78
2022/04/07 10:22:02;;;;;;;1.00;1.00;;;17.50;64.20;;;;;;5008377;28;43909;-78
2022/04/07 10:24:32;;;;;;;2.20;1.10;;;17.40;64.30;;;;;;4987248;28;44028;-78
2022/04/07 10:27:20;;;;;;;1.00;1.00;;;17.40;64.50;;;;;;5004588;28;43943;-78
2022/04/07 10:30:04;;;;;;;0.90;0.90;;;17.40;64.70;;;;;;4989004;28;45957;-79
2022/04/07 10:32:36;;;;;;;1.00;1.00;;;17.40;65.60;;;;;;5008438;28;44021;-79
2022/04/07 10:35:04;;;;;;;1.10;1.10;;;17.40;64.90;;;;;;5008561;28;44031;-77
2022/04/07 10:37:42;;;;;;;0.90;0.90;;;17.40;65.50;;;;;;5008659;28;43912;-77
2022/04/07 10:40:39;;;;;;;1.20;1.20;;;17.50;65.10;;;;;;4986751;28;44495;-77
2022/04/07 10:43:21;;;;;;;1.33;1.27;;;17.70;64.60;;;;;;5004211;28;43905;-77
2022/04/07 10:45:51;;;;;;;1.10;1.10;;;18.00;63.90;;;;;;4989784;28;44062;-77
2022/04/07 10:48:25;;;;;;;2.63;0.90;;;18.10;63.50;;;;;;4990460;28;43830;-77
2022/04/07 10:50:54;;;;;;;1.10;1.10;;;18.10;63.20;;;;;;5007721;28;43901;-77
2022/04/07 10:53:25;;;;;;;0.90;0.90;;;18.10;63.20;;;;;;4983938;28;44933;-78
2022/04/07 10:56:08;;;;;;;1.30;1.20;;;18.00;63.20;;;;;;4987082;28;43931;-78
2022/04/07 10:58:45;;;;;;;1.40;1.30;;;17.80;63.90;;;;;;4988280;28;43920;-77
2022/04/07 11:01:30;;;;;;;1.10;1.10;;;17.70;63.50;;;;;;4989932;28;45979;-78
2022/04/07 11:04:27;;;;;;;1.00;1.00;;;17.70;63.90;;;;;;4991335;28;43599;-77
2022/04/07 11:07:18;;;;;;;1.23;1.23;;;17.60;64.10;;;;;;5007627;28;43872;-77
2022/04/07 11:09:48;;;;;;;1.13;1.13;;;17.50;64.30;;;;;;5008295;28;43961;-77
2022/04/07 11:12:22;;;;;;;0.97;0.97;;;17.50;64.50;;;;;;5001462;28;43914;-77
2022/04/07 11:14:50;;;;;;;0.90;0.90;;;17.50;65.10;;;;;;5007724;28;43882;-77
2022/04/07 11:17:29;;;;;;;1.10;1.10;;;17.50;65.10;;;;;;5007766;28;43979;-79
2022/04/07 11:20:04;;;;;;;0.97;0.97;;;17.70;64.80;;;;;;5007965;28;43976;-76
2022/04/07 11:22:52;;;;;;;0.67;0.67;;;17.80;64.50;;;;;;5007762;28;43820;-77
2022/04/07 11:25:24;;;;;;;1.10;1.10;;;17.80;64.10;;;;;;4989993;28;44999;-77
2022/04/07 11:28:04;;;;;;;1.10;1.10;;;17.80;63.90;;;;;;5001194;28;44001;-77
2022/04/07 11:30:36;;;;;;;1.03;1.00;;;17.70;63.90;;;;;;5008115;28;43297;-79
2022/04/07 11:33:40;;;;;;;1.10;1.10;;;17.60;64.00;;;;;;5005957;28;45441;-77
2022/04/07 11:36:15;;;;;;;0.90;0.90;;;17.50;64.20;;;;;;5001032;28;44021;-77
2022/04/07 11:38:44;;;;;;;0.80;0.80;;;17.50;64.40;;;;;;5002247;28;43378;-79
2022/04/07 11:41:13;;;;;;;0.93;0.93;;;17.40;64.50;;;;;;5007747;28;44184;-79
2022/04/07 11:43:41;;;;;;;1.00;1.00;;;17.40;64.60;;;;;;5007170;28;43913;-77
2022/04/07 11:46:09;;;;;;;0.90;0.90;;;17.40;64.70;;;;;;5006866;28;43908;-79
2022/04/07 11:49:00;;;;;;;0.90;0.90;;;17.40;64.90;;;;;;5005520;28;44072;-79
2022/04/07 11:51:28;;;;;;;1.10;1.10;;;17.40;65.00;;;;;;5006019;28;43977;-79
2022/04/07 11:53:56;;;;;;;1.17;1.17;;;17.40;65.50;;;;;;5006618;28;43981;-77
2022/04/07 11:56:26;;;;;;;0.80;0.80;;;17.50;65.20;;;;;;5005366;28;44563;-77
2022/04/07 11:58:54;;;;;;;0.90;0.90;;;17.70;64.80;;;;;;5006914;28;44010;-77
2022/04/07 12:01:23;;;;;;;0.93;0.93;;;17.90;64.20;;;;;;5005887;28;44019;-79
2022/04/07 12:03:52;;;;;;;0.90;0.90;;;18.00;63.70;;;;;;5006860;28;43984;-79
2022/04/07 12:06:23;;;;;;;0.90;0.90;;;18.10;63.40;;;;;;5006835;28;43913;-78
2022/04/07 12:08:51;;;;;;;0.90;0.90;;;18.10;63.50;;;;;;5007168;28;43966;-77
2022/04/07 12:11:19;;;;;;;1.27;1.17;;;18.00;63.50;;;;;;5007002;28;43947;-78
2022/04/07 12:13:48;;;;;;;0.90;0.90;;;17.90;63.40;;;;;;5006652;28;44848;-78
2022/04/07 12:16:15;;;;;;;0.90;0.90;;;17.80;63.60;;;;;;5005573;28;45024;-78
2022/04/07 12:18:52;;;;;;;0.90;0.90;;;17.70;63.90;;;;;;5006719;28;43980;-79
2022/04/07 12:21:20;;;;;;;0.73;0.73;;;17.60;64.80;;;;;;5005625;28;43857;-79
2022/04/07 12:23:50;;;;;;;0.90;0.90;;;17.50;64.20;;;;;;5006561;28;45164;-78
2022/04/07 12:26:18;;;;;;;0.90;0.90;;;17.50;64.50;;;;;;5006020;28;43442;-77
2022/04/07 12:28:46;;;;;;;0.60;0.60;;;17.40;64.50;;;;;;5006657;28;43266;-77
2022/04/07 12:31:20;;;;;;;1.03;0.97;;;17.40;65.20;;;;;;4986163;28;44016;-77
2022/04/07 12:33:49;;;;;;;0.90;0.90;;;17.50;65.20;;;;;;5006362;28;43993;-78
2022/04/07 12:36:17;;;;;;;0.77;0.77;;;17.60;64.70;;;;;;4988399;28;44570;-78
2022/04/07 12:38:59;;;;;;;0.73;0.73;;;17.80;64.50;;;;;;4988987;28;43926;-78
2022/04/07 12:41:36;;;;;;;0.80;0.80;;;17.80;64.20;;;;;;5006935;28;43468;-79
2022/04/07 12:44:05;;;;;;;0.80;0.80;;;17.70;64.00;;;;;;5006563;28;43957;-77
2022/04/07 12:46:52;;;;;;;0.97;0.97;;;17.70;64.00;;;;;;5006459;28;43953;-77
2022/04/07 12:49:24;;;;;;;0.67;0.67;;;17.60;64.10;;;;;;4988435;28;44005;-77
2022/04/07 12:52:02;;;;;;;0.90;0.90;;;17.50;64.30;;;;;;4988781;28;43970;-78
2022/04/07 12:54:31;;;;;;;0.70;0.70;;;17.50;64.60;;;;;;4988126;28;45738;-77
2022/04/07 12:57:11;;;;;;;1.17;0.80;;;17.40;64.60;;;;;;4987845;28;44897;-78
2022/04/07 12:59:39;;;;;;;0.70;0.70;;;17.40;64.90;;;;;;5006186;28;44066;-77
2022/04/07 13:02:08;;;;;;;0.90;0.90;;;17.40;65.00;;;;;;5006600;28;44200;-79